KHLG

Wheeling Ohio Co Airport

Wheeling, West Virginia, USA
METAR KHLG 191453Z 22009G20KT 10SM CLR M04/M12 A3012 RMK AO2 SLP217 T10391122 58003
Observed Flight Rules
Jan-19 @ 14:53 UTC (33 minutes ago) Visual Flight Rules
Wind Visibility Clouds
220° at 9 knots
 Gusting to 20 knots
10 miles
  • Clear skies
Temperatures Readings
Current -4°C / 25°F
Dewpoint -12°C / 10°F
Humidity 54%
Altimeter 30.12" Hg
Pressure 1021.7 hPa
Elevation 372
METAR KHLG 191453Z 22009G20KT 10SM CLR M04/M12 A3012 RMK AO2 SLP217 T10391122 58003
Observed Flight Rules
Jan-19 @ 14:53 UTC
(33 minutes ago)
VFR
Wind Visibility
220° at 9 knots
 Gusting to 20 knots
10 miles
Clouds
  • Clear skies
Temperature Dewpoint
-4°C / 25°F -12°C / 10°F
Humidity Altimeter Pressure
54% 30.12" Hg 1021.7 hPa